sensor_id;sensor_type;location;lat;lon;timestamp;P1;durP1;ratioP1;P2;durP2;ratioP2
26211;SDS011;13951;49.516;6.094;2024-03-17T02:03:46;5.53;;;3.40;;
26211;SDS011;13951;49.516;6.094;2024-03-17T02:06:18;3.87;;;2.70;;
26211;SDS011;13951;49.516;6.094;2024-03-17T02:08:57;2.87;;;2.50;;
26211;SDS011;13951;49.516;6.094;2024-03-17T02:11:57;3.33;;;2.73;;
26211;SDS011;13951;49.516;6.094;2024-03-17T02:14:30;3.23;;;2.90;;
26211;SDS011;13951;49.516;6.094;2024-03-17T02:17:03;5.10;;;3.50;;
26211;SDS011;13951;49.516;6.094;2024-03-17T02:19:44;4.10;;;3.30;;
26211;SDS011;13951;49.516;6.094;2024-03-17T02:22:21;5.30;;;3.60;;
26211;SDS011;13951;49.516;6.094;2024-03-17T03:47:02;5.20;;;2.80;;
26211;SDS011;13951;49.516;6.094;2024-03-17T03:49:40;3.40;;;3.00;;
26211;SDS011;13951;49.516;6.094;2024-03-17T03:52:16;5.33;;;3.30;;
26211;SDS011;13951;49.516;6.094;2024-03-17T03:54:57;4.10;;;3.10;;
26211;SDS011;13951;49.516;6.094;2024-03-17T03:57:49;6.67;;;3.60;;
26211;SDS011;13951;49.516;6.094;2024-03-17T04:00:28;5.07;;;3.60;;
26211;SDS011;13951;49.516;6.094;2024-03-17T04:03:07;5.13;;;3.27;;
26211;SDS011;13951;49.516;6.094;2024-03-17T04:06:08;4.67;;;3.93;;
26211;SDS011;13951;49.516;6.094;2024-03-17T04:09:05;3.87;;;3.13;;
26211;SDS011;13951;49.516;6.094;2024-03-17T04:12:01;2.63;;;2.43;;
26211;SDS011;13951;49.516;6.094;2024-03-17T04:14:53;3.03;;;2.60;;
26211;SDS011;13951;49.516;6.094;2024-03-17T04:17:36;3.43;;;2.43;;
26211;SDS011;13951;49.516;6.094;2024-03-17T04:20:14;3.17;;;2.47;;
26211;SDS011;13951;49.516;6.094;2024-03-17T04:22:56;3.50;;;2.80;;
26211;SDS011;13951;49.516;6.094;2024-03-17T04:25:50;5.40;;;3.73;;
26211;SDS011;13951;49.516;6.094;2024-03-17T04:28:44;5.27;;;3.30;;
26211;SDS011;13951;49.516;6.094;2024-03-17T04:31:30;4.57;;;3.50;;
26211;SDS011;13951;49.516;6.094;2024-03-17T04:34:14;4.30;;;3.17;;
26211;SDS011;13951;49.516;6.094;2024-03-17T04:37:05;2.77;;;2.20;;
26211;SDS011;13951;49.516;6.094;2024-03-17T04:39:41;2.87;;;2.27;;
26211;SDS011;13951;49.516;6.094;2024-03-17T04:42:26;5.77;;;2.87;;
26211;SDS011;13951;49.516;6.094;2024-03-17T04:45:26;4.43;;;3.20;;
26211;SDS011;13951;49.516;6.094;2024-03-17T04:48:19;5.77;;;3.27;;
26211;SDS011;13951;49.516;6.094;2024-03-17T04:51:03;4.97;;;3.17;;
26211;SDS011;13951;49.516;6.094;2024-03-17T04:53:48;9.03;;;3.90;;
26211;SDS011;13951;49.516;6.094;2024-03-17T04:56:29;4.33;;;3.13;;
26211;SDS011;13951;49.516;6.094;2024-03-17T04:59:13;2.70;;;2.33;;
26211;SDS011;13951;49.516;6.094;2024-03-17T07:13:09;7.67;;;5.63;;
26211;SDS011;13951;49.516;6.094;2024-03-17T07:15:54;10.00;;;5.80;;
26211;SDS011;13951;49.516;6.094;2024-03-17T07:18:39;8.97;;;5.70;;
26211;SDS011;13951;49.516;6.094;2024-03-17T07:46:20;10.97;;;6.33;;
26211;SDS011;13951;49.516;6.094;2024-03-17T07:48:53;11.00;;;6.70;;
26211;SDS011;13951;49.516;6.094;2024-03-17T07:51:27;11.53;;;6.73;;
26211;SDS011;13951;49.516;6.094;2024-03-17T07:54:00;9.30;;;6.47;;
26211;SDS011;13951;49.516;6.094;2024-03-17T07:56:33;11.53;;;6.37;;
26211;SDS011;13951;49.516;6.094;2024-03-17T07:59:06;12.67;;;7.23;;
26211;SDS011;13951;49.516;6.094;2024-03-17T08:01:48;12.90;;;7.13;;
26211;SDS011;13951;49.516;6.094;2024-03-17T08:04:22;13.73;;;7.40;;
26211;SDS011;13951;49.516;6.094;2024-03-17T08:06:56;18.03;;;10.93;;
26211;SDS011;13951;49.516;6.094;2024-03-17T08:09:28;13.43;;;7.30;;
26211;SDS011;13951;49.516;6.094;2024-03-17T08:14:43;25.67;;;15.00;;
26211;SDS011;13951;49.516;6.094;2024-03-17T08:17:15;18.17;;;11.57;;
26211;SDS011;13951;49.516;6.094;2024-03-17T08:36:00;14.53;;;9.43;;
26211;SDS011;13951;49.516;6.094;2024-03-17T08:39:41;17.60;;;11.10;;
26211;SDS011;13951;49.516;6.094;2024-03-17T08:42:14;16.37;;;9.70;;
26211;SDS011;13951;49.516;6.094;2024-03-17T08:44:47;18.83;;;12.07;;
26211;SDS011;13951;49.516;6.094;2024-03-17T08:47:19;18.10;;;9.47;;
26211;SDS011;13951;49.516;6.094;2024-03-17T08:49:51;15.77;;;9.10;;
26211;SDS011;13951;49.516;6.094;2024-03-17T08:52:23;16.73;;;8.90;;
26211;SDS011;13951;49.516;6.094;2024-03-17T09:14:37;19.93;;;8.70;;
26211;SDS011;13951;49.516;6.094;2024-03-17T09:17:10;15.43;;;8.80;;
26211;SDS011;13951;49.516;6.094;2024-03-17T09:19:44;15.43;;;8.20;;
26211;SDS011;13951;49.516;6.094;2024-03-17T09:22:16;14.60;;;8.67;;
26211;SDS011;13951;49.516;6.094;2024-03-17T09:24:49;14.63;;;8.20;;
26211;SDS011;13951;49.516;6.094;2024-03-17T09:27:22;16.80;;;8.07;;
26211;SDS011;13951;49.516;6.094;2024-03-17T09:29:57;17.90;;;8.13;;
26211;SDS011;13951;49.516;6.094;2024-03-17T09:32:31;19.70;;;8.97;;
26211;SDS011;13951;49.516;6.094;2024-03-17T09:35:04;14.07;;;8.63;;
26211;SDS011;13951;49.516;6.094;2024-03-17T09:37:38;20.80;;;9.30;;
26211;SDS011;13951;49.516;6.094;2024-03-17T09:46:06;17.87;;;9.43;;
26211;SDS011;13951;49.516;6.094;2024-03-17T09:48:39;16.63;;;8.70;;
26211;SDS011;13951;49.516;6.094;2024-03-17T09:51:19;21.20;;;8.70;;
26211;SDS011;13951;49.516;6.094;2024-03-17T09:53:54;16.03;;;8.63;;
26211;SDS011;13951;49.516;6.094;2024-03-17T09:56:26;16.90;;;8.90;;
26211;SDS011;13951;49.516;6.094;2024-03-17T09:59:02;17.07;;;8.27;;
26211;SDS011;13951;49.516;6.094;2024-03-17T10:01:35;17.67;;;8.80;;
26211;SDS011;13951;49.516;6.094;2024-03-17T10:04:08;14.77;;;8.67;;
26211;SDS011;13951;49.516;6.094;2024-03-17T10:06:45;16.53;;;8.77;;
26211;SDS011;13951;49.516;6.094;2024-03-17T10:09:28;17.07;;;8.63;;
26211;SDS011;13951;49.516;6.094;2024-03-17T10:18:20;19.10;;;8.83;;
26211;SDS011;13951;49.516;6.094;2024-03-17T10:21:00;18.83;;;10.43;;
26211;SDS011;13951;49.516;6.094;2024-03-17T10:23:35;19.97;;;9.87;;
26211;SDS011;13951;49.516;6.094;2024-03-17T10:26:13;18.57;;;9.77;;
26211;SDS011;13951;49.516;6.094;2024-03-17T10:28:46;15.63;;;9.00;;
26211;SDS011;13951;49.516;6.094;2024-03-17T10:35:30;19.57;;;8.90;;
26211;SDS011;13951;49.516;6.094;2024-03-17T10:38:11;13.40;;;8.30;;
26211;SDS011;13951;49.516;6.094;2024-03-17T10:40:44;15.87;;;9.17;;
26211;SDS011;13951;49.516;6.094;2024-03-17T10:43:17;14.70;;;9.30;;
26211;SDS011;13951;49.516;6.094;2024-03-17T10:45:49;14.80;;;8.30;;
26211;SDS011;13951;49.516;6.094;2024-03-17T10:48:21;13.83;;;8.27;;
26211;SDS011;13951;49.516;6.094;2024-03-17T10:51:00;15.80;;;8.13;;
26211;SDS011;13951;49.516;6.094;2024-03-17T10:53:34;14.70;;;7.70;;
26211;SDS011;13951;49.516;6.094;2024-03-17T10:56:06;15.93;;;7.77;;
26211;SDS011;13951;49.516;6.094;2024-03-17T10:58:43;13.83;;;7.63;;
26211;SDS011;13951;49.516;6.094;2024-03-17T11:01:21;10.93;;;6.97;;
26211;SDS011;13951;49.516;6.094;2024-03-17T11:03:53;11.70;;;7.67;;
26211;SDS011;13951;49.516;6.094;2024-03-17T11:06:28;13.67;;;8.10;;
26211;SDS011;13951;49.516;6.094;2024-03-17T11:09:13;17.67;;;11.03;;
26211;SDS011;13951;49.516;6.094;2024-03-17T11:11:47;18.60;;;11.10;;
26211;SDS011;13951;49.516;6.094;2024-03-17T11:14:22;10.10;;;7.00;;
26211;SDS011;13951;49.516;6.094;2024-03-17T11:16:54;14.90;;;8.57;;
26211;SDS011;13951;49.516;6.094;2024-03-17T11:19:28;14.57;;;7.93;;
26211;SDS011;13951;49.516;6.094;2024-03-17T11:22:38;14.93;;;8.63;;
26211;SDS011;13951;49.516;6.094;2024-03-17T11:27:58;15.30;;;10.40;;
26211;SDS011;13951;49.516;6.094;2024-03-17T11:30:44;20.10;;;10.00;;
26211;SDS011;13951;49.516;6.094;2024-03-17T11:38:59;20.13;;;11.63;;
26211;SDS011;13951;49.516;6.094;2024-03-17T11:41:55;13.00;;;7.83;;
26211;SDS011;13951;49.516;6.094;2024-03-17T11:44:27;14.03;;;8.70;;
26211;SDS011;13951;49.516;6.094;2024-03-17T11:47:01;16.63;;;8.23;;
26211;SDS011;13951;49.516;6.094;2024-03-17T11:49:40;10.77;;;6.70;;
26211;SDS011;13951;49.516;6.094;2024-03-17T11:52:15;12.20;;;6.17;;
26211;SDS011;13951;49.516;6.094;2024-03-17T11:54:48;10.63;;;5.60;;
26211;SDS011;13951;49.516;6.094;2024-03-17T11:57:21;7.80;;;4.70;;
26211;SDS011;13951;49.516;6.094;2024-03-17T11:59:55;9.23;;;5.13;;
26211;SDS011;13951;49.516;6.094;2024-03-17T12:02:30;12.70;;;5.97;;
26211;SDS011;13951;49.516;6.094;2024-03-17T12:05:03;9.60;;;4.97;;
26211;SDS011;13951;49.516;6.094;2024-03-17T12:07:41;8.47;;;5.00;;
26211;SDS011;13951;49.516;6.094;2024-03-17T12:10:14;8.53;;;5.10;;
26211;SDS011;13951;49.516;6.094;2024-03-17T12:12:48;11.10;;;5.37;;
26211;SDS011;13951;49.516;6.094;2024-03-17T12:15:20;8.47;;;5.80;;
26211;SDS011;13951;49.516;6.094;2024-03-17T12:17:54;9.10;;;5.27;;
26211;SDS011;13951;49.516;6.094;2024-03-17T12:20:26;8.70;;;5.50;;
26211;SDS011;13951;49.516;6.094;2024-03-17T12:22:59;8.33;;;5.43;;
26211;SDS011;13951;49.516;6.094;2024-03-17T12:25:33;9.17;;;5.60;;
26211;SDS011;13951;49.516;6.094;2024-03-17T12:28:11;10.13;;;5.80;;
26211;SDS011;13951;49.516;6.094;2024-03-17T12:30:48;8.83;;;5.57;;
26211;SDS011;13951;49.516;6.094;2024-03-17T12:33:20;11.10;;;5.27;;
26211;SDS011;13951;49.516;6.094;2024-03-17T12:35:52;7.13;;;4.60;;
26211;SDS011;13951;49.516;6.094;2024-03-17T12:38:27;6.53;;;4.67;;
26211;SDS011;13951;49.516;6.094;2024-03-17T12:41:00;5.93;;;3.50;;
26211;SDS011;13951;49.516;6.094;2024-03-17T12:43:32;4.65;;;3.22;;
26211;SDS011;13951;49.516;6.094;2024-03-17T12:46:04;5.88;;;3.75;;
26211;SDS011;13951;49.516;6.094;2024-03-17T12:48:36;5.95;;;3.10;;
26211;SDS011;13951;49.516;6.094;2024-03-17T12:51:13;3.55;;;2.67;;
26211;SDS011;13951;49.516;6.094;2024-03-17T12:53:45;5.30;;;3.03;;
26211;SDS011;13951;49.516;6.094;2024-03-17T12:56:22;4.38;;;3.00;;
26211;SDS011;13951;49.516;6.094;2024-03-17T12:59:36;4.88;;;3.25;;
26211;SDS011;13951;49.516;6.094;2024-03-17T13:02:27;7.22;;;3.40;;
26211;SDS011;13951;49.516;6.094;2024-03-17T13:05:16;4.90;;;3.03;;
26211;SDS011;13951;49.516;6.094;2024-03-17T13:07:50;6.32;;;3.83;;
26211;SDS011;13951;49.516;6.094;2024-03-17T13:10:22;7.90;;;4.07;;
26211;SDS011;13951;49.516;6.094;2024-03-17T13:15:35;7.43;;;3.63;;
26211;SDS011;13951;49.516;6.094;2024-03-17T13:18:07;7.03;;;3.97;;
26211;SDS011;13951;49.516;6.094;2024-03-17T13:20:39;5.17;;;3.70;;
26211;SDS011;13951;49.516;6.094;2024-03-17T13:23:12;6.27;;;3.43;;
26211;SDS011;13951;49.516;6.094;2024-03-17T13:25:45;4.60;;;3.43;;
26211;SDS011;13951;49.516;6.094;2024-03-17T13:28:17;5.33;;;3.30;;
26211;SDS011;13951;49.516;6.094;2024-03-17T13:30:49;5.93;;;3.20;;
26211;SDS011;13951;49.516;6.094;2024-03-17T13:33:21;6.07;;;3.67;;
26211;SDS011;13951;49.516;6.094;2024-03-17T13:35:56;4.80;;;3.20;;
26211;SDS011;13951;49.516;6.094;2024-03-17T13:38:28;4.43;;;3.10;;
26211;SDS011;13951;49.516;6.094;2024-03-17T13:41:00;4.37;;;3.27;;
26211;SDS011;13951;49.516;6.094;2024-03-17T13:43:35;4.73;;;3.37;;
26211;SDS011;13951;49.516;6.094;2024-03-17T13:46:07;6.37;;;3.50;;
26211;SDS011;13951;49.516;6.094;2024-03-17T13:48:40;4.87;;;2.70;;
26211;SDS011;13951;49.516;6.094;2024-03-17T13:51:13;4.73;;;2.70;;
26211;SDS011;13951;49.516;6.094;2024-03-17T13:53:45;4.83;;;2.27;;
26211;SDS011;13951;49.516;6.094;2024-03-17T13:56:17;3.27;;;2.20;;
26211;SDS011;13951;49.516;6.094;2024-03-17T13:58:49;3.10;;;2.00;;
26211;SDS011;13951;49.516;6.094;2024-03-17T14:01:22;2.70;;;1.83;;
26211;SDS011;13951;49.516;6.094;2024-03-17T14:03:54;3.07;;;1.70;;
26211;SDS011;13951;49.516;6.094;2024-03-17T14:06:26;3.10;;;2.27;;
26211;SDS011;13951;49.516;6.094;2024-03-17T14:08:59;3.57;;;2.10;;
26211;SDS011;13951;49.516;6.094;2024-03-17T14:11:31;3.93;;;2.10;;
26211;SDS011;13951;49.516;6.094;2024-03-17T14:14:05;4.63;;;2.40;;
26211;SDS011;13951;49.516;6.094;2024-03-17T14:16:37;3.23;;;2.10;;
26211;SDS011;13951;49.516;6.094;2024-03-17T14:19:09;5.00;;;2.53;;
26211;SDS011;13951;49.516;6.094;2024-03-17T14:21:43;3.53;;;1.80;;
26211;SDS011;13951;49.516;6.094;2024-03-17T14:24:15;5.63;;;2.20;;
26211;SDS011;13951;49.516;6.094;2024-03-17T14:26:47;3.53;;;2.37;;
26211;SDS011;13951;49.516;6.094;2024-03-17T14:29:19;4.90;;;2.40;;
26211;SDS011;13951;49.516;6.094;2024-03-17T14:31:51;4.80;;;2.27;;
26211;SDS011;13951;49.516;6.094;2024-03-17T14:34:23;3.43;;;2.30;;
26211;SDS011;13951;49.516;6.094;2024-03-17T14:36:56;2.93;;;2.10;;
26211;SDS011;13951;49.516;6.094;2024-03-17T14:39:28;4.43;;;2.77;;
26211;SDS011;13951;49.516;6.094;2024-03-17T14:42:03;2.73;;;2.40;;
26211;SDS011;13951;49.516;6.094;2024-03-17T14:44:36;3.77;;;2.70;;
26211;SDS011;13951;49.516;6.094;2024-03-17T14:47:09;4.67;;;2.40;;
26211;SDS011;13951;49.516;6.094;2024-03-17T14:49:42;3.20;;;2.20;;
26211;SDS011;13951;49.516;6.094;2024-03-17T14:52:17;3.83;;;2.73;;
26211;SDS011;13951;49.516;6.094;2024-03-17T14:54:50;3.40;;;2.53;;
26211;SDS011;13951;49.516;6.094;2024-03-17T14:57:24;4.10;;;2.40;;
26211;SDS011;13951;49.516;6.094;2024-03-17T14:59:58;3.60;;;2.60;;
26211;SDS011;13951;49.516;6.094;2024-03-17T15:02:30;4.73;;;2.70;;
26211;SDS011;13951;49.516;6.094;2024-03-17T15:05:06;4.77;;;2.70;;
26211;SDS011;13951;49.516;6.094;2024-03-17T15:07:46;3.87;;;2.97;;
26211;SDS011;13951;49.516;6.094;2024-03-17T15:10:20;5.20;;;2.87;;
26211;SDS011;13951;49.516;6.094;2024-03-17T15:12:52;4.23;;;2.50;;
26211;SDS011;13951;49.516;6.094;2024-03-17T15:15:25;7.40;;;2.60;;
26211;SDS011;13951;49.516;6.094;2024-03-17T15:17:57;3.67;;;2.90;;
26211;SDS011;13951;49.516;6.094;2024-03-17T15:20:30;4.70;;;3.27;;
26211;SDS011;13951;49.516;6.094;2024-03-17T15:23:02;6.90;;;3.47;;
26211;SDS011;13951;49.516;6.094;2024-03-17T15:25:36;5.33;;;2.97;;
26211;SDS011;13951;49.516;6.094;2024-03-17T15:28:08;5.27;;;3.40;;
26211;SDS011;13951;49.516;6.094;2024-03-17T15:30:44;5.27;;;3.23;;
26211;SDS011;13951;49.516;6.094;2024-03-17T15:33:17;4.70;;;3.27;;
26211;SDS011;13951;49.516;6.094;2024-03-17T15:35:49;7.77;;;3.57;;
26211;SDS011;13951;49.516;6.094;2024-03-17T15:38:21;3.40;;;3.10;;
26211;SDS011;13951;49.516;6.094;2024-03-17T15:40:53;3.77;;;3.00;;
26211;SDS011;13951;49.516;6.094;2024-03-17T15:43:26;6.40;;;3.67;;
26211;SDS011;13951;49.516;6.094;2024-03-17T15:45:59;5.45;;;3.63;;
26211;SDS011;13951;49.516;6.094;2024-03-17T15:48:33;5.53;;;3.07;;
26211;SDS011;13951;49.516;6.094;2024-03-17T15:51:05;3.23;;;2.77;;
26211;SDS011;13951;49.516;6.094;2024-03-17T15:53:37;3.37;;;2.60;;
26211;SDS011;13951;49.516;6.094;2024-03-17T15:56:10;5.27;;;2.90;;
26211;SDS011;13951;49.516;6.094;2024-03-17T15:58:43;3.90;;;2.90;;
26211;SDS011;13951;49.516;6.094;2024-03-17T16:01:15;4.23;;;2.90;;
26211;SDS011;13951;49.516;6.094;2024-03-17T16:03:48;2.63;;;2.40;;
26211;SDS011;13951;49.516;6.094;2024-03-17T16:06:20;3.57;;;2.77;;
26211;SDS011;13951;49.516;6.094;2024-03-17T16:08:53;4.27;;;2.90;;
26211;SDS011;13951;49.516;6.094;2024-03-17T16:11:27;4.33;;;2.80;;
26211;SDS011;13951;49.516;6.094;2024-03-17T16:14:00;5.27;;;2.97;;
26211;SDS011;13951;49.516;6.094;2024-03-17T16:16:32;6.30;;;2.60;;
26211;SDS011;13951;49.516;6.094;2024-03-17T16:19:04;4.50;;;2.63;;
26211;SDS011;13951;49.516;6.094;2024-03-17T16:21:39;3.63;;;2.20;;
26211;SDS011;13951;49.516;6.094;2024-03-17T16:24:13;6.37;;;2.50;;
26211;SDS011;13951;49.516;6.094;2024-03-17T16:26:46;4.67;;;2.37;;
26211;SDS011;13951;49.516;6.094;2024-03-17T16:29:18;5.17;;;2.50;;
26211;SDS011;13951;49.516;6.094;2024-03-17T16:31:50;3.70;;;2.20;;
26211;SDS011;13951;49.516;6.094;2024-03-17T16:34:23;4.17;;;2.13;;
26211;SDS011;13951;49.516;6.094;2024-03-17T16:36:59;2.60;;;2.30;;
26211;SDS011;13951;49.516;6.094;2024-03-17T16:39:31;2.47;;;2.10;;
26211;SDS011;13951;49.516;6.094;2024-03-17T16:42:04;4.30;;;1.70;;
26211;SDS011;13951;49.516;6.094;2024-03-17T16:44:40;5.00;;;2.10;;
26211;SDS011;13951;49.516;6.094;2024-03-17T16:49:58;4.50;;;2.00;;
26211;SDS011;13951;49.516;6.094;2024-03-17T16:52:32;3.53;;;2.00;;
26211;SDS011;13951;49.516;6.094;2024-03-17T16:55:05;2.93;;;1.80;;
26211;SDS011;13951;49.516;6.094;2024-03-17T16:57:38;3.33;;;1.73;;
26211;SDS011;13951;49.516;6.094;2024-03-17T17:00:10;3.40;;;1.50;;
26211;SDS011;13951;49.516;6.094;2024-03-17T17:02:49;3.67;;;2.10;;
26211;SDS011;13951;49.516;6.094;2024-03-17T17:05:22;3.93;;;1.90;;
26211;SDS011;13951;49.516;6.094;2024-03-17T17:07:54;4.87;;;1.97;;
26211;SDS011;13951;49.516;6.094;2024-03-17T17:10:26;5.03;;;2.40;;
26211;SDS011;13951;49.516;6.094;2024-03-17T17:12:59;3.00;;;1.70;;
26211;SDS011;13951;49.516;6.094;2024-03-17T17:15:31;4.60;;;2.20;;
26211;SDS011;13951;49.516;6.094;2024-03-17T17:18:04;2.90;;;1.77;;
26211;SDS011;13951;49.516;6.094;2024-03-17T17:20:38;3.30;;;1.80;;
26211;SDS011;13951;49.516;6.094;2024-03-17T17:23:11;4.90;;;2.20;;
26211;SDS011;13951;49.516;6.094;2024-03-17T17:25:47;4.33;;;2.20;;
26211;SDS011;13951;49.516;6.094;2024-03-17T17:28:19;6.20;;;2.40;;
26211;SDS011;13951;49.516;6.094;2024-03-17T17:30:51;3.80;;;2.30;;
26211;SDS011;13951;49.516;6.094;2024-03-17T17:33:24;4.57;;;2.03;;
26211;SDS011;13951;49.516;6.094;2024-03-17T17:35:56;3.87;;;2.30;;
26211;SDS011;13951;49.516;6.094;2024-03-17T17:38:29;4.90;;;2.10;;
26211;SDS011;13951;49.516;6.094;2024-03-17T17:41:05;2.33;;;1.80;;
26211;SDS011;13951;49.516;6.094;2024-03-17T17:43:41;3.07;;;1.60;;
26211;SDS011;13951;49.516;6.094;2024-03-17T17:46:16;3.53;;;1.63;;
26211;SDS011;13951;49.516;6.094;2024-03-17T17:48:52;2.07;;;1.50;;
26211;SDS011;13951;49.516;6.094;2024-03-17T17:51:25;2.67;;;1.70;;
26211;SDS011;13951;49.516;6.094;2024-03-17T17:53:57;2.93;;;2.00;;
26211;SDS011;13951;49.516;6.094;2024-03-17T17:56:29;4.87;;;1.63;;
26211;SDS011;13951;49.516;6.094;2024-03-17T17:59:02;2.13;;;1.93;;
26211;SDS011;13951;49.516;6.094;2024-03-17T18:01:35;3.17;;;2.10;;
26211;SDS011;13951;49.516;6.094;2024-03-17T18:04:07;3.70;;;2.00;;
26211;SDS011;13951;49.516;6.094;2024-03-17T18:06:40;2.73;;;1.80;;
26211;SDS011;13951;49.516;6.094;2024-03-17T18:09:12;2.70;;;2.03;;
26211;SDS011;13951;49.516;6.094;2024-03-17T18:11:55;4.20;;;2.10;;
26211;SDS011;13951;49.516;6.094;2024-03-17T18:14:33;4.23;;;2.20;;
26211;SDS011;13951;49.516;6.094;2024-03-17T18:17:05;4.43;;;2.53;;
26211;SDS011;13951;49.516;6.094;2024-03-17T18:19:38;2.17;;;1.90;;
26211;SDS011;13951;49.516;6.094;2024-03-17T18:22:11;3.17;;;2.27;;
26211;SDS011;13951;49.516;6.094;2024-03-17T18:24:43;3.80;;;2.07;;
26211;SDS011;13951;49.516;6.094;2024-03-17T18:27:16;2.20;;;2.00;;
26211;SDS011;13951;49.516;6.094;2024-03-17T18:29:48;6.43;;;2.20;;
26211;SDS011;13951;49.516;6.094;2024-03-17T18:32:21;4.50;;;2.33;;
26211;SDS011;13951;49.516;6.094;2024-03-17T18:34:53;4.67;;;2.53;;
26211;SDS011;13951;49.516;6.094;2024-03-17T18:37:25;4.63;;;2.37;;
26211;SDS011;13951;49.516;6.094;2024-03-17T18:39:58;4.20;;;2.50;;
26211;SDS011;13951;49.516;6.094;2024-03-17T18:42:32;4.53;;;2.60;;
26211;SDS011;13951;49.516;6.094;2024-03-17T18:45:05;3.53;;;2.80;;
26211;SDS011;13951;49.516;6.094;2024-03-17T18:47:38;5.37;;;2.83;;
26211;SDS011;13951;49.516;6.094;2024-03-17T18:50:11;4.30;;;3.07;;
26211;SDS011;13951;49.516;6.094;2024-03-17T18:52:44;21.40;;;12.60;;
26211;SDS011;13951;49.516;6.094;2024-03-17T18:55:17;24.20;;;13.63;;
26211;SDS011;13951;49.516;6.094;2024-03-17T18:57:50;10.00;;;6.77;;
26211;SDS011;13951;49.516;6.094;2024-03-17T19:00:22;7.93;;;3.97;;
26211;SDS011;13951;49.516;6.094;2024-03-17T19:02:58;5.37;;;3.43;;
26211;SDS011;13951;49.516;6.094;2024-03-17T19:05:30;4.50;;;2.80;;
26211;SDS011;13951;49.516;6.094;2024-03-17T19:08:05;7.23;;;3.43;;
26211;SDS011;13951;49.516;6.094;2024-03-17T19:10:38;6.33;;;3.47;;
26211;SDS011;13951;49.516;6.094;2024-03-17T19:13:10;8.80;;;4.07;;
26211;SDS011;13951;49.516;6.094;2024-03-17T19:15:43;6.17;;;3.60;;
26211;SDS011;13951;49.516;6.094;2024-03-17T19:18:15;6.97;;;3.60;;
26211;SDS011;13951;49.516;6.094;2024-03-17T19:20:49;5.53;;;3.37;;
26211;SDS011;13951;49.516;6.094;2024-03-17T19:23:21;3.60;;;2.60;;
26211;SDS011;13951;49.516;6.094;2024-03-17T19:25:58;7.93;;;3.60;;
26211;SDS011;13951;49.516;6.094;2024-03-17T19:28:32;5.07;;;3.10;;
26211;SDS011;13951;49.516;6.094;2024-03-17T19:31:04;4.67;;;3.10;;
26211;SDS011;13951;49.516;6.094;2024-03-17T19:33:39;5.27;;;3.13;;
26211;SDS011;13951;49.516;6.094;2024-03-17T19:36:11;7.43;;;3.40;;
26211;SDS011;13951;49.516;6.094;2024-03-17T19:38:44;5.13;;;2.73;;
26211;SDS011;13951;49.516;6.094;2024-03-17T19:41:19;4.13;;;3.13;;
26211;SDS011;13951;49.516;6.094;2024-03-17T19:43:51;3.77;;;3.00;;
26211;SDS011;13951;49.516;6.094;2024-03-17T19:46:23;5.90;;;3.07;;
26211;SDS011;13951;49.516;6.094;2024-03-17T19:48:56;7.03;;;3.23;;
26211;SDS011;13951;49.516;6.094;2024-03-17T19:51:28;4.40;;;3.23;;
26211;SDS011;13951;49.516;6.094;2024-03-17T19:54:02;4.93;;;3.40;;
26211;SDS011;13951;49.516;6.094;2024-03-17T19:56:34;7.27;;;3.80;;
26211;SDS011;13951;49.516;6.094;2024-03-17T19:59:06;6.03;;;3.40;;
26211;SDS011;13951;49.516;6.094;2024-03-17T20:01:38;5.47;;;3.33;;
26211;SDS011;13951;49.516;6.094;2024-03-17T20:04:11;7.03;;;3.70;;
26211;SDS011;13951;49.516;6.094;2024-03-17T20:06:43;8.27;;;3.80;;
26211;SDS011;13951;49.516;6.094;2024-03-17T20:09:15;7.33;;;4.17;;
26211;SDS011;13951;49.516;6.094;2024-03-17T20:11:47;6.77;;;4.03;;
26211;SDS011;13951;49.516;6.094;2024-03-17T20:14:19;9.30;;;3.67;;
26211;SDS011;13951;49.516;6.094;2024-03-17T20:16:52;4.87;;;3.00;;
26211;SDS011;13951;49.516;6.094;2024-03-17T20:19:24;3.57;;;2.87;;
26211;SDS011;13951;49.516;6.094;2024-03-17T20:21:56;5.47;;;3.07;;
26211;SDS011;13951;49.516;6.094;2024-03-17T20:24:29;5.93;;;3.00;;
26211;SDS011;13951;49.516;6.094;2024-03-17T20:27:01;4.43;;;2.93;;
26211;SDS011;13951;49.516;6.094;2024-03-17T20:29:33;4.60;;;2.90;;
26211;SDS011;13951;49.516;6.094;2024-03-17T20:32:06;4.80;;;2.80;;
26211;SDS011;13951;49.516;6.094;2024-03-17T20:34:40;5.17;;;2.80;;
26211;SDS011;13951;49.516;6.094;2024-03-17T20:37:12;5.00;;;2.93;;
26211;SDS011;13951;49.516;6.094;2024-03-17T20:39:44;4.80;;;2.67;;
26211;SDS011;13951;49.516;6.094;2024-03-17T20:42:16;3.43;;;2.70;;
26211;SDS011;13951;49.516;6.094;2024-03-17T20:44:48;5.37;;;2.40;;
26211;SDS011;13951;49.516;6.094;2024-03-17T20:47:20;3.80;;;2.60;;
26211;SDS011;13951;49.516;6.094;2024-03-17T20:49:52;4.10;;;2.80;;
26211;SDS011;13951;49.516;6.094;2024-03-17T20:52:25;4.30;;;2.80;;
26211;SDS011;13951;49.516;6.094;2024-03-17T20:54:57;2.97;;;2.67;;
26211;SDS011;13951;49.516;6.094;2024-03-17T20:57:29;3.83;;;2.70;;
26211;SDS011;13951;49.516;6.094;2024-03-17T21:00:05;5.33;;;2.47;;
26211;SDS011;13951;49.516;6.094;2024-03-17T21:02:49;4.20;;;2.90;;
26211;SDS011;13951;49.516;6.094;2024-03-17T21:05:25;4.93;;;2.90;;
26211;SDS011;13951;49.516;6.094;2024-03-17T21:08:00;2.87;;;2.50;;
26211;SDS011;13951;49.516;6.094;2024-03-17T21:10:32;5.40;;;3.17;;
26211;SDS011;13951;49.516;6.094;2024-03-17T21:13:04;5.80;;;3.00;;
26211;SDS011;13951;49.516;6.094;2024-03-17T21:15:38;5.30;;;2.93;;
26211;SDS011;13951;49.516;6.094;2024-03-17T21:18:11;7.23;;;2.90;;
26211;SDS011;13951;49.516;6.094;2024-03-17T21:20:44;5.90;;;2.93;;
26211;SDS011;13951;49.516;6.094;2024-03-17T21:23:16;4.07;;;2.60;;
26211;SDS011;13951;49.516;6.094;2024-03-17T21:25:50;5.93;;;3.00;;
26211;SDS011;13951;49.516;6.094;2024-03-17T21:28:22;4.00;;;2.77;;
26211;SDS011;13951;49.516;6.094;2024-03-17T21:30:58;4.07;;;2.90;;
26211;SDS011;13951;49.516;6.094;2024-03-17T21:33:31;5.83;;;2.57;;
26211;SDS011;13951;49.516;6.094;2024-03-17T21:36:04;3.10;;;2.30;;
26211;SDS011;13951;49.516;6.094;2024-03-17T21:38:37;6.00;;;2.77;;
26211;SDS011;13951;49.516;6.094;2024-03-17T21:41:10;5.97;;;2.93;;
26211;SDS011;13951;49.516;6.094;2024-03-17T21:43:45;4.00;;;2.60;;
26211;SDS011;13951;49.516;6.094;2024-03-17T21:46:19;3.87;;;2.63;;
26211;SDS011;13951;49.516;6.094;2024-03-17T21:48:51;6.00;;;2.57;;
26211;SDS011;13951;49.516;6.094;2024-03-17T21:51:24;4.13;;;2.90;;
26211;SDS011;13951;49.516;6.094;2024-03-17T21:53:56;5.17;;;3.00;;
26211;SDS011;13951;49.516;6.094;2024-03-17T21:56:28;3.63;;;2.77;;
26211;SDS011;13951;49.516;6.094;2024-03-17T21:59:01;7.43;;;2.97;;
26211;SDS011;13951;49.516;6.094;2024-03-17T22:01:33;2.40;;;2.20;;
26211;SDS011;13951;49.516;6.094;2024-03-17T22:04:06;3.53;;;2.63;;
26211;SDS011;13951;49.516;6.094;2024-03-17T22:06:38;3.87;;;2.73;;
26211;SDS011;13951;49.516;6.094;2024-03-17T22:09:10;4.17;;;2.70;;
26211;SDS011;13951;49.516;6.094;2024-03-17T22:11:43;5.60;;;2.90;;
26211;SDS011;13951;49.516;6.094;2024-03-17T22:14:16;3.77;;;2.37;;
26211;SDS011;13951;49.516;6.094;2024-03-17T22:16:49;3.47;;;2.57;;
26211;SDS011;13951;49.516;6.094;2024-03-17T22:19:23;4.53;;;3.00;;
26211;SDS011;13951;49.516;6.094;2024-03-17T22:21:55;3.33;;;2.33;;
26211;SDS011;13951;49.516;6.094;2024-03-17T22:24:27;4.03;;;2.60;;
26211;SDS011;13951;49.516;6.094;2024-03-17T22:27:00;4.33;;;2.60;;
26211;SDS011;13951;49.516;6.094;2024-03-17T22:29:34;4.43;;;2.50;;
26211;SDS011;13951;49.516;6.094;2024-03-17T22:32:07;5.70;;;3.00;;
26211;SDS011;13951;49.516;6.094;2024-03-17T22:34:39;3.63;;;2.50;;
26211;SDS011;13951;49.516;6.094;2024-03-17T22:37:11;5.43;;;3.00;;
26211;SDS011;13951;49.516;6.094;2024-03-17T22:39:44;3.73;;;2.83;;